sensor_id;sensor_type;location;lat;lon;timestamp;temperature;humidity
22852;DHT22;11592;45.460;9.240;2022-09-17T00:01:03;25.30;62.90
22852;DHT22;11592;45.460;9.240;2022-09-17T00:03:31;25.30;62.00
22852;DHT22;11592;45.460;9.240;2022-09-17T00:06:08;25.30;62.30
22852;DHT22;11592;45.460;9.240;2022-09-17T00:08:35;25.30;63.60
22852;DHT22;11592;45.460;9.240;2022-09-17T00:11:27;25.20;64.00
22852;DHT22;11592;45.460;9.240;2022-09-17T00:13:58;25.20;63.50
22852;DHT22;11592;45.460;9.240;2022-09-17T00:16:29;25.20;62.90
22852;DHT22;11592;45.460;9.240;2022-09-17T00:18:57;25.20;63.00
22852;DHT22;11592;45.460;9.240;2022-09-17T00:21:25;25.20;63.20
22852;DHT22;11592;45.460;9.240;2022-09-17T00:23:54;25.20;64.20
22852;DHT22;11592;45.460;9.240;2022-09-17T00:26:21;25.20;64.30
22852;DHT22;11592;45.460;9.240;2022-09-17T00:28:51;25.20;63.20
22852;DHT22;11592;45.460;9.240;2022-09-17T00:31:18;25.10;63.20
22852;DHT22;11592;45.460;9.240;2022-09-17T00:33:46;25.10;63.80
22852;DHT22;11592;45.460;9.240;2022-09-17T00:36:12;25.00;65.10
22852;DHT22;11592;45.460;9.240;2022-09-17T00:38:39;25.00;64.60
22852;DHT22;11592;45.460;9.240;2022-09-17T00:41:07;24.90;67.50
22852;DHT22;11592;45.460;9.240;2022-09-17T00:43:38;24.90;73.80
22852;DHT22;11592;45.460;9.240;2022-09-17T00:46:21;24.90;79.80
22852;DHT22;11592;45.460;9.240;2022-09-17T00:48:48;24.80;88.90
22852;DHT22;11592;45.460;9.240;2022-09-17T00:51:20;24.70;93.30
22852;DHT22;11592;45.460;9.240;2022-09-17T00:53:48;24.40;98.90
22852;DHT22;11592;45.460;9.240;2022-09-17T00:58:45;24.30;99.90
22852;DHT22;11592;45.460;9.240;2022-09-17T01:01:12;24.30;99.90
22852;DHT22;11592;45.460;9.240;2022-09-17T01:03:40;24.20;99.90
22852;DHT22;11592;45.460;9.240;2022-09-17T01:06:44;24.10;99.90
22852;DHT22;11592;45.460;9.240;2022-09-17T01:42:37;23.20;99.90
22852;DHT22;11592;45.460;9.240;2022-09-17T01:45:17;23.20;99.90
22852;DHT22;11592;45.460;9.240;2022-09-17T01:48:06;23.10;99.90
22852;DHT22;11592;45.460;9.240;2022-09-17T01:51:11;23.00;99.90
22852;DHT22;11592;45.460;9.240;2022-09-17T01:54:06;22.90;99.90
22852;DHT22;11592;45.460;9.240;2022-09-17T01:56:36;22.90;99.90
22852;DHT22;11592;45.460;9.240;2022-09-17T01:59:19;22.70;99.90
22852;DHT22;11592;45.460;9.240;2022-09-17T02:01:51;22.70;99.90
22852;DHT22;11592;45.460;9.240;2022-09-17T02:04:23;22.50;99.90
22852;DHT22;11592;45.460;9.240;2022-09-17T02:07:37;22.40;99.90
22852;DHT22;11592;45.460;9.240;2022-09-17T02:09:51;22.30;99.90
22852;DHT22;11592;45.460;9.240;2022-09-17T02:12:27;22.10;99.90
22852;DHT22;11592;45.460;9.240;2022-09-17T02:14:57;22.10;99.90
22852;DHT22;11592;45.460;9.240;2022-09-17T02:17:31;22.10;99.90
22852;DHT22;11592;45.460;9.240;2022-09-17T02:20:00;21.90;99.90
22852;DHT22;11592;45.460;9.240;2022-09-17T02:22:49;21.90;99.90
22852;DHT22;11592;45.460;9.240;2022-09-17T02:25:53;21.80;99.90
22852;DHT22;11592;45.460;9.240;2022-09-17T02:28:27;21.70;99.90
22852;DHT22;11592;45.460;9.240;2022-09-17T02:30:56;21.70;99.90
22852;DHT22;11592;45.460;9.240;2022-09-17T02:33:24;21.60;99.90
22852;DHT22;11592;45.460;9.240;2022-09-17T02:35:51;21.60;99.90
22852;DHT22;11592;45.460;9.240;2022-09-17T02:38:24;21.50;99.90
22852;DHT22;11592;45.460;9.240;2022-09-17T02:41:17;21.50;99.90
22852;DHT22;11592;45.460;9.240;2022-09-17T02:44:00;21.50;99.90
22852;DHT22;11592;45.460;9.240;2022-09-17T02:57:36;21.30;99.90
22852;DHT22;11592;45.460;9.240;2022-09-17T03:00:12;21.20;99.90
22852;DHT22;11592;45.460;9.240;2022-09-17T03:02:47;21.10;99.90
22852;DHT22;11592;45.460;9.240;2022-09-17T03:05:19;21.10;99.90
22852;DHT22;11592;45.460;9.240;2022-09-17T03:07:47;21.10;99.90
22852;DHT22;11592;45.460;9.240;2022-09-17T03:10:13;21.10;99.90
22852;DHT22;11592;45.460;9.240;2022-09-17T03:12:41;21.00;99.90
22852;DHT22;11592;45.460;9.240;2022-09-17T03:15:09;21.10;99.90
22852;DHT22;11592;45.460;9.240;2022-09-17T03:17:36;21.10;99.90
22852;DHT22;11592;45.460;9.240;2022-09-17T03:20:03;21.10;99.90
22852;DHT22;11592;45.460;9.240;2022-09-17T03:22:30;21.00;99.90
22852;DHT22;11592;45.460;9.240;2022-09-17T03:24:57;21.00;99.90
22852;DHT22;11592;45.460;9.240;2022-09-17T03:27:24;21.10;99.90
22852;DHT22;11592;45.460;9.240;2022-09-17T03:29:51;21.00;99.90
22852;DHT22;11592;45.460;9.240;2022-09-17T03:32:17;20.90;99.90
22852;DHT22;11592;45.460;9.240;2022-09-17T03:34:44;20.90;99.90
22852;DHT22;11592;45.460;9.240;2022-09-17T03:37:12;20.80;99.90
22852;DHT22;11592;45.460;9.240;2022-09-17T03:39:39;20.80;99.90
22852;DHT22;11592;45.460;9.240;2022-09-17T03:42:06;20.90;99.90
22852;DHT22;11592;45.460;9.240;2022-09-17T03:44:32;20.90;99.90
22852;DHT22;11592;45.460;9.240;2022-09-17T03:46:59;20.90;99.90
22852;DHT22;11592;45.460;9.240;2022-09-17T03:49:26;20.90;99.90
22852;DHT22;11592;45.460;9.240;2022-09-17T03:51:53;20.90;99.90
22852;DHT22;11592;45.460;9.240;2022-09-17T03:54:19;20.90;99.90
22852;DHT22;11592;45.460;9.240;2022-09-17T03:56:46;20.90;99.90
22852;DHT22;11592;45.460;9.240;2022-09-17T03:59:13;20.80;99.90
22852;DHT22;11592;45.460;9.240;2022-09-17T04:01:40;20.60;99.90
22852;DHT22;11592;45.460;9.240;2022-09-17T04:04:07;20.60;99.90
22852;DHT22;11592;45.460;9.240;2022-09-17T04:06:34;20.60;99.90
22852;DHT22;11592;45.460;9.240;2022-09-17T04:09:01;20.50;99.90
22852;DHT22;11592;45.460;9.240;2022-09-17T04:11:30;20.50;99.90
22852;DHT22;11592;45.460;9.240;2022-09-17T04:13:57;20.40;99.90
22852;DHT22;11592;45.460;9.240;2022-09-17T04:16:24;20.30;99.90
22852;DHT22;11592;45.460;9.240;2022-09-17T04:18:51;20.20;99.90
22852;DHT22;11592;45.460;9.240;2022-09-17T04:21:17;20.20;99.90
22852;DHT22;11592;45.460;9.240;2022-09-17T04:23:44;20.30;99.90
22852;DHT22;11592;45.460;9.240;2022-09-17T04:26:11;20.40;99.90
22852;DHT22;11592;45.460;9.240;2022-09-17T04:28:38;20.30;99.90
22852;DHT22;11592;45.460;9.240;2022-09-17T04:31:04;20.20;99.90
22852;DHT22;11592;45.460;9.240;2022-09-17T04:33:31;20.10;99.90
22852;DHT22;11592;45.460;9.240;2022-09-17T04:35:58;20.00;99.90
22852;DHT22;11592;45.460;9.240;2022-09-17T04:38:25;20.20;99.90
22852;DHT22;11592;45.460;9.240;2022-09-17T04:40:51;20.20;99.90
22852;DHT22;11592;45.460;9.240;2022-09-17T04:43:19;20.10;99.90
22852;DHT22;11592;45.460;9.240;2022-09-17T04:45:47;20.20;99.90
22852;DHT22;11592;45.460;9.240;2022-09-17T04:48:14;20.20;99.90
22852;DHT22;11592;45.460;9.240;2022-09-17T04:50:41;20.10;99.90
22852;DHT22;11592;45.460;9.240;2022-09-17T04:53:08;20.20;99.90
22852;DHT22;11592;45.460;9.240;2022-09-17T04:55:35;20.10;99.90
22852;DHT22;11592;45.460;9.240;2022-09-17T04:58:02;20.10;99.90
22852;DHT22;11592;45.460;9.240;2022-09-17T05:00:29;20.10;99.90
22852;DHT22;11592;45.460;9.240;2022-09-17T05:02:56;20.10;99.90
22852;DHT22;11592;45.460;9.240;2022-09-17T05:05:23;20.10;99.90
22852;DHT22;11592;45.460;9.240;2022-09-17T05:07:50;20.00;99.90
22852;DHT22;11592;45.460;9.240;2022-09-17T05:10:18;20.10;99.90
22852;DHT22;11592;45.460;9.240;2022-09-17T05:12:50;20.00;99.90
22852;DHT22;11592;45.460;9.240;2022-09-17T05:15:17;20.00;99.90
22852;DHT22;11592;45.460;9.240;2022-09-17T05:17:45;20.00;99.90
22852;DHT22;11592;45.460;9.240;2022-09-17T05:20:13;20.00;99.90
22852;DHT22;11592;45.460;9.240;2022-09-17T05:22:42;19.80;99.90
22852;DHT22;11592;45.460;9.240;2022-09-17T05:25:09;20.00;99.90
22852;DHT22;11592;45.460;9.240;2022-09-17T05:27:37;19.90;99.90
22852;DHT22;11592;45.460;9.240;2022-09-17T05:30:05;19.90;99.90
22852;DHT22;11592;45.460;9.240;2022-09-17T05:32:32;19.90;99.90
22852;DHT22;11592;45.460;9.240;2022-09-17T05:34:59;19.90;99.90
22852;DHT22;11592;45.460;9.240;2022-09-17T05:37:30;20.00;99.90
22852;DHT22;11592;45.460;9.240;2022-09-17T05:39:57;19.90;99.90
22852;DHT22;11592;45.460;9.240;2022-09-17T05:42:24;19.90;99.90
22852;DHT22;11592;45.460;9.240;2022-09-17T05:44:51;19.60;99.90
22852;DHT22;11592;45.460;9.240;2022-09-17T05:47:17;19.60;99.90
22852;DHT22;11592;45.460;9.240;2022-09-17T05:49:44;19.50;99.90
22852;DHT22;11592;45.460;9.240;2022-09-17T05:52:11;19.30;99.90
22852;DHT22;11592;45.460;9.240;2022-09-17T05:54:38;19.40;99.90
22852;DHT22;11592;45.460;9.240;2022-09-17T05:57:04;19.50;99.90
22852;DHT22;11592;45.460;9.240;2022-09-17T05:59:32;19.60;99.90
22852;DHT22;11592;45.460;9.240;2022-09-17T06:02:00;19.80;99.90
22852;DHT22;11592;45.460;9.240;2022-09-17T06:04:27;19.80;99.90
22852;DHT22;11592;45.460;9.240;2022-09-17T06:07:03;19.90;99.90
22852;DHT22;11592;45.460;9.240;2022-09-17T06:09:30;20.00;99.90
22852;DHT22;11592;45.460;9.240;2022-09-17T06:11:57;20.20;99.90
22852;DHT22;11592;45.460;9.240;2022-09-17T06:14:24;20.40;99.90
22852;DHT22;11592;45.460;9.240;2022-09-17T06:16:50;20.60;99.90
22852;DHT22;11592;45.460;9.240;2022-09-17T06:19:17;20.50;99.90
22852;DHT22;11592;45.460;9.240;2022-09-17T06:21:45;20.50;99.90
22852;DHT22;11592;45.460;9.240;2022-09-17T06:24:12;20.40;99.90
22852;DHT22;11592;45.460;9.240;2022-09-17T06:26:39;20.00;99.90
22852;DHT22;11592;45.460;9.240;2022-09-17T06:29:06;20.00;99.90
22852;DHT22;11592;45.460;9.240;2022-09-17T06:31:32;20.20;99.90
22852;DHT22;11592;45.460;9.240;2022-09-17T06:33:59;20.20;99.90
22852;DHT22;11592;45.460;9.240;2022-09-17T06:36:27;19.90;99.90
22852;DHT22;11592;45.460;9.240;2022-09-17T06:38:54;19.80;99.90
22852;DHT22;11592;45.460;9.240;2022-09-17T06:41:20;19.90;99.90
22852;DHT22;11592;45.460;9.240;2022-09-17T06:43:47;19.70;99.90
22852;DHT22;11592;45.460;9.240;2022-09-17T06:46:14;19.50;99.90
22852;DHT22;11592;45.460;9.240;2022-09-17T06:48:41;19.50;99.90
22852;DHT22;11592;45.460;9.240;2022-09-17T06:51:09;19.50;99.90
22852;DHT22;11592;45.460;9.240;2022-09-17T06:53:39;19.40;99.90
22852;DHT22;11592;45.460;9.240;2022-09-17T06:56:07;19.40;99.90
22852;DHT22;11592;45.460;9.240;2022-09-17T06:58:35;19.50;99.90
22852;DHT22;11592;45.460;9.240;2022-09-17T07:01:10;19.60;99.90
22852;DHT22;11592;45.460;9.240;2022-09-17T07:03:38;19.70;99.90
22852;DHT22;11592;45.460;9.240;2022-09-17T07:06:09;19.90;99.90
22852;DHT22;11592;45.460;9.240;2022-09-17T07:08:36;20.10;99.90
22852;DHT22;11592;45.460;9.240;2022-09-17T07:11:03;20.00;99.90
22852;DHT22;11592;45.460;9.240;2022-09-17T07:13:30;19.90;99.90
22852;DHT22;11592;45.460;9.240;2022-09-17T07:15:59;19.90;99.90
22852;DHT22;11592;45.460;9.240;2022-09-17T07:18:26;19.90;99.90
22852;DHT22;11592;45.460;9.240;2022-09-17T07:20:54;19.90;99.90
22852;DHT22;11592;45.460;9.240;2022-09-17T07:23:23;20.20;99.90
22852;DHT22;11592;45.460;9.240;2022-09-17T07:25:54;20.40;99.90
22852;DHT22;11592;45.460;9.240;2022-09-17T07:28:21;20.80;99.90
22852;DHT22;11592;45.460;9.240;2022-09-17T07:30:49;21.00;99.90
22852;DHT22;11592;45.460;9.240;2022-09-17T07:33:18;21.10;96.10
22852;DHT22;11592;45.460;9.240;2022-09-17T07:36:02;21.50;84.50
22852;DHT22;11592;45.460;9.240;2022-09-17T07:38:29;21.90;76.80
22852;DHT22;11592;45.460;9.240;2022-09-17T07:41:04;22.10;68.20
22852;DHT22;11592;45.460;9.240;2022-09-17T07:43:35;22.30;64.10
22852;DHT22;11592;45.460;9.240;2022-09-17T07:46:03;22.50;62.20
22852;DHT22;11592;45.460;9.240;2022-09-17T07:48:30;22.50;57.70
22852;DHT22;11592;45.460;9.240;2022-09-17T07:50:57;22.50;56.20
22852;DHT22;11592;45.460;9.240;2022-09-17T07:53:24;22.40;54.40
22852;DHT22;11592;45.460;9.240;2022-09-17T07:55:53;22.40;54.00
22852;DHT22;11592;45.460;9.240;2022-09-17T07:58:22;22.30;52.70
22852;DHT22;11592;45.460;9.240;2022-09-17T08:00:49;22.30;52.40
22852;DHT22;11592;45.460;9.240;2022-09-17T08:03:16;22.40;52.40
22852;DHT22;11592;45.460;9.240;2022-09-17T08:05:43;22.40;51.60
22852;DHT22;11592;45.460;9.240;2022-09-17T08:08:09;22.40;50.60
22852;DHT22;11592;45.460;9.240;2022-09-17T08:10:36;22.40;51.10
22852;DHT22;11592;45.460;9.240;2022-09-17T08:13:03;22.40;50.60
22852;DHT22;11592;45.460;9.240;2022-09-17T08:15:30;22.50;51.10
22852;DHT22;11592;45.460;9.240;2022-09-17T08:17:56;22.50;51.70
22852;DHT22;11592;45.460;9.240;2022-09-17T08:20:23;22.30;64.50
22852;DHT22;11592;45.460;9.240;2022-09-17T08:22:57;22.40;90.60
22852;DHT22;11592;45.460;9.240;2022-09-17T08:25:24;22.20;97.50
22852;DHT22;11592;45.460;9.240;2022-09-17T08:27:55;22.20;99.20
22852;DHT22;11592;45.460;9.240;2022-09-17T08:30:22;22.20;99.90
22852;DHT22;11592;45.460;9.240;2022-09-17T08:32:49;21.90;99.90
22852;DHT22;11592;45.460;9.240;2022-09-17T08:35:16;21.80;99.90
22852;DHT22;11592;45.460;9.240;2022-09-17T08:37:43;21.80;99.90
22852;DHT22;11592;45.460;9.240;2022-09-17T08:40:16;21.80;99.90
22852;DHT22;11592;45.460;9.240;2022-09-17T08:42:58;21.80;99.90
22852;DHT22;11592;45.460;9.240;2022-09-17T08:45:28;21.50;99.90
22852;DHT22;11592;45.460;9.240;2022-09-17T08:48:01;21.40;99.90
22852;DHT22;11592;45.460;9.240;2022-09-17T08:50:31;21.30;99.90
22852;DHT22;11592;45.460;9.240;2022-09-17T09:01:26;20.80;99.90
22852;DHT22;11592;45.460;9.240;2022-09-17T09:06:35;20.80;99.90
22852;DHT22;11592;45.460;9.240;2022-09-17T09:09:09;20.80;99.90
22852;DHT22;11592;45.460;9.240;2022-09-17T09:11:38;20.80;99.90
22852;DHT22;11592;45.460;9.240;2022-09-17T09:16:43;20.30;99.90
22852;DHT22;11592;45.460;9.240;2022-09-17T09:19:26;20.40;99.90
22852;DHT22;11592;45.460;9.240;2022-09-17T09:22:13;20.30;99.90
22852;DHT22;11592;45.460;9.240;2022-09-17T09:27:36;20.40;99.90
22852;DHT22;11592;45.460;9.240;2022-09-17T09:32:46;20.80;99.90
22852;DHT22;11592;45.460;9.240;2022-09-17T09:35:21;20.50;99.90
22852;DHT22;11592;45.460;9.240;2022-09-17T09:38:00;20.30;99.90
22852;DHT22;11592;45.460;9.240;2022-09-17T09:40:32;20.50;99.90
22852;DHT22;11592;45.460;9.240;2022-09-17T09:43:08;20.40;99.90
22852;DHT22;11592;45.460;9.240;2022-09-17T09:48:43;20.80;99.90
22852;DHT22;11592;45.460;9.240;2022-09-17T09:57:13;21.10;99.90
22852;DHT22;11592;45.460;9.240;2022-09-17T09:59:40;21.10;99.90
22852;DHT22;11592;45.460;9.240;2022-09-17T10:02:07;20.90;99.90
22852;DHT22;11592;45.460;9.240;2022-09-17T10:04:34;20.60;99.90
22852;DHT22;11592;45.460;9.240;2022-09-17T10:07:07;20.70;99.90
22852;DHT22;11592;45.460;9.240;2022-09-17T10:09:36;20.80;99.90
22852;DHT22;11592;45.460;9.240;2022-09-17T10:12:14;21.00;99.90
22852;DHT22;11592;45.460;9.240;2022-09-17T10:14:43;21.00;99.90
22852;DHT22;11592;45.460;9.240;2022-09-17T10:17:23;21.00;99.90
22852;DHT22;11592;45.460;9.240;2022-09-17T10:22:44;21.30;99.90
22852;DHT22;11592;45.460;9.240;2022-09-17T10:25:30;21.30;99.90
22852;DHT22;11592;45.460;9.240;2022-09-17T10:28:00;21.70;99.90
22852;DHT22;11592;45.460;9.240;2022-09-17T10:30:28;22.00;99.90
22852;DHT22;11592;45.460;9.240;2022-09-17T10:33:24;22.20;99.90
22852;DHT22;11592;45.460;9.240;2022-09-17T10:36:05;22.10;99.90
22852;DHT22;11592;45.460;9.240;2022-09-17T10:38:38;22.10;99.90
22852;DHT22;11592;45.460;9.240;2022-09-17T10:41:15;22.30;99.90
22852;DHT22;11592;45.460;9.240;2022-09-17T10:43:42;22.50;99.90
22852;DHT22;11592;45.460;9.240;2022-09-17T10:46:14;22.60;99.90
22852;DHT22;11592;45.460;9.240;2022-09-17T10:49:09;22.60;99.90
22852;DHT22;11592;45.460;9.240;2022-09-17T10:51:37;22.40;99.90
22852;DHT22;11592;45.460;9.240;2022-09-17T10:54:24;22.80;99.90
22852;DHT22;11592;45.460;9.240;2022-09-17T10:56:56;23.10;99.90
22852;DHT22;11592;45.460;9.240;2022-09-17T10:59:56;23.60;99.90
22852;DHT22;11592;45.460;9.240;2022-09-17T11:10:52;24.70;96.80
22852;DHT22;11592;45.460;9.240;2022-09-17T11:19:11;25.80;96.40
22852;DHT22;11592;45.460;9.240;2022-09-17T11:35:19;27.90;93.20
22852;DHT22;11592;45.460;9.240;2022-09-17T11:37:53;28.40;91.80
22852;DHT22;11592;45.460;9.240;2022-09-17T11:40:46;28.10;92.90
22852;DHT22;11592;45.460;9.240;2022-09-17T11:46:01;27.90;91.20
22852;DHT22;11592;45.460;9.240;2022-09-17T11:54:07;28.50;90.10
22852;DHT22;11592;45.460;9.240;2022-09-17T11:56:43;28.10;90.10
22852;DHT22;11592;45.460;9.240;2022-09-17T11:59:30;27.80;90.80
22852;DHT22;11592;45.460;9.240;2022-09-17T12:04:59;29.40;90.80
22852;DHT22;11592;45.460;9.240;2022-09-17T12:10:57;30.90;84.00
22852;DHT22;11592;45.460;9.240;2022-09-17T12:13:31;32.20;80.70
22852;DHT22;11592;45.460;9.240;2022-09-17T12:16:15;33.10;79.00
22852;DHT22;11592;45.460;9.240;2022-09-17T12:21:58;34.10;71.80
22852;DHT22;11592;45.460;9.240;2022-09-17T12:24:27;35.40;66.00
22852;DHT22;11592;45.460;9.240;2022-09-17T12:28:10;35.80;62.70
22852;DHT22;11592;45.460;9.240;2022-09-17T12:30:15;37.30;59.30
22852;DHT22;11592;45.460;9.240;2022-09-17T12:33:10;37.80;56.40
22852;DHT22;11592;45.460;9.240;2022-09-17T12:39:08;38.70;52.50
22852;DHT22;11592;45.460;9.240;2022-09-17T12:45:19;38.70;51.50
22852;DHT22;11592;45.460;9.240;2022-09-17T12:51:06;39.30;47.10
22852;DHT22;11592;45.460;9.240;2022-09-17T12:54:02;38.80;47.10
22852;DHT22;11592;45.460;9.240;2022-09-17T12:57:06;39.40;47.80
22852;DHT22;11592;45.460;9.240;2022-09-17T12:59:51;39.40;47.60
22852;DHT22;11592;45.460;9.240;2022-09-17T13:02:26;38.50;47.60
22852;DHT22;11592;45.460;9.240;2022-09-17T13:10:38;38.40;47.50
22852;DHT22;11592;45.460;9.240;2022-09-17T13:16:20;37.90;47.20
22852;DHT22;11592;45.460;9.240;2022-09-17T13:21:48;38.00;47.70
22852;DHT22;11592;45.460;9.240;2022-09-17T13:24:19;38.40;46.30
22852;DHT22;11592;45.460;9.240;2022-09-17T13:26:47;39.30;45.50
22852;DHT22;11592;45.460;9.240;2022-09-17T13:40:32;38.30;47.50
22852;DHT22;11592;45.460;9.240;2022-09-17T13:45:30;38.40;45.00
22852;DHT22;11592;45.460;9.240;2022-09-17T13:48:05;36.50;45.90
22852;DHT22;11592;45.460;9.240;2022-09-17T13:50:43;33.60;49.50
22852;DHT22;11592;45.460;9.240;2022-09-17T13:55:43;30.20;54.80
22852;DHT22;11592;45.460;9.240;2022-09-17T14:21:43;24.70;61.40
22852;DHT22;11592;45.460;9.240;2022-09-17T14:24:34;24.70;61.80
22852;DHT22;11592;45.460;9.240;2022-09-17T14:30:20;24.60;64.20
22852;DHT22;11592;45.460;9.240;2022-09-17T14:38:01;24.90;65.50
22852;DHT22;11592;45.460;9.240;2022-09-17T14:40:30;24.90;63.40
22852;DHT22;11592;45.460;9.240;2022-09-17T14:43:00;24.90;61.40
22852;DHT22;11592;45.460;9.240;2022-09-17T14:45:31;24.90;61.80
22852;DHT22;11592;45.460;9.240;2022-09-17T14:48:30;24.90;62.20
22852;DHT22;11592;45.460;9.240;2022-09-17T14:53:45;24.80;61.40
22852;DHT22;11592;45.460;9.240;2022-09-17T14:56:14;24.70;61.30
22852;DHT22;11592;45.460;9.240;2022-09-17T14:58:52;24.70;62.40
22852;DHT22;11592;45.460;9.240;2022-09-17T15:01:25;24.70;61.80
22852;DHT22;11592;45.460;9.240;2022-09-17T15:06:42;24.50;60.30
22852;DHT22;11592;45.460;9.240;2022-09-17T15:09:17;24.60;61.00
22852;DHT22;11592;45.460;9.240;2022-09-17T15:11:45;24.70;60.40
22852;DHT22;11592;45.460;9.240;2022-09-17T15:14:18;24.70;61.40
22852;DHT22;11592;45.460;9.240;2022-09-17T15:16:48;24.60;62.10
22852;DHT22;11592;45.460;9.240;2022-09-17T15:19:22;24.50;61.30
22852;DHT22;11592;45.460;9.240;2022-09-17T15:21:52;24.40;60.80
22852;DHT22;11592;45.460;9.240;2022-09-17T15:27:25;24.50;62.20
22852;DHT22;11592;45.460;9.240;2022-09-17T15:30:05;24.60;63.60
22852;DHT22;11592;45.460;9.240;2022-09-17T15:32:35;25.20;62.20
22852;DHT22;11592;45.460;9.240;2022-09-17T15:40:35;33.50;50.40
22852;DHT22;11592;45.460;9.240;2022-09-17T15:43:33;35.30;47.60
22852;DHT22;11592;45.460;9.240;2022-09-17T15:46:26;36.70;44.90
22852;DHT22;11592;45.460;9.240;2022-09-17T15:48:54;37.50;43.00
22852;DHT22;11592;45.460;9.240;2022-09-17T15:51:29;37.70;42.10
22852;DHT22;11592;45.460;9.240;2022-09-17T15:54:01;37.90;42.80
22852;DHT22;11592;45.460;9.240;2022-09-17T15:56:35;38.10;41.90
22852;DHT22;11592;45.460;9.240;2022-09-17T15:59:29;38.20;41.50
22852;DHT22;11592;45.460;9.240;2022-09-17T16:01:59;38.10;41.60
22852;DHT22;11592;45.460;9.240;2022-09-17T16:04:31;37.80;41.40
22852;DHT22;11592;45.460;9.240;2022-09-17T16:12:11;36.50;41.60
22852;DHT22;11592;45.460;9.240;2022-09-17T16:14:44;34.70;42.20
22852;DHT22;11592;45.460;9.240;2022-09-17T16:17:41;32.20;45.40
22852;DHT22;11592;45.460;9.240;2022-09-17T16:20:20;29.90;48.20
22852;DHT22;11592;45.460;9.240;2022-09-17T16:22:50;28.20;50.50
22852;DHT22;11592;45.460;9.240;2022-09-17T16:25:22;27.10;52.30
22852;DHT22;11592;45.460;9.240;2022-09-17T16:27:53;26.30;54.10
22852;DHT22;11592;45.460;9.240;2022-09-17T16:30:22;25.70;54.90
22852;DHT22;11592;45.460;9.240;2022-09-17T16:32:49;25.30;57.10
22852;DHT22;11592;45.460;9.240;2022-09-17T16:35:19;24.90;57.00
22852;DHT22;11592;45.460;9.240;2022-09-17T16:37:50;24.80;57.70
22852;DHT22;11592;45.460;9.240;2022-09-17T16:40:18;24.60;57.60
22852;DHT22;11592;45.460;9.240;2022-09-17T16:42:45;24.30;58.90
22852;DHT22;11592;45.460;9.240;2022-09-17T16:45:12;24.10;59.70
22852;DHT22;11592;45.460;9.240;2022-09-17T16:47:40;24.00;60.60
22852;DHT22;11592;45.460;9.240;2022-09-17T16:50:13;23.90;61.90
22852;DHT22;11592;45.460;9.240;2022-09-17T16:52:40;23.90;62.30
22852;DHT22;11592;45.460;9.240;2022-09-17T16:55:08;23.80;61.50
22852;DHT22;11592;45.460;9.240;2022-09-17T16:57:34;23.60;61.70
22852;DHT22;11592;45.460;9.240;2022-09-17T17:00:02;23.50;62.50
22852;DHT22;11592;45.460;9.240;2022-09-17T17:02:29;23.50;62.90
22852;DHT22;11592;45.460;9.240;2022-09-17T17:04:56;23.50;63.80
22852;DHT22;11592;45.460;9.240;2022-09-17T17:07:23;23.50;64.80
22852;DHT22;11592;45.460;9.240;2022-09-17T17:09:50;23.40;65.90
22852;DHT22;11592;45.460;9.240;2022-09-17T17:12:17;23.30;65.70
22852;DHT22;11592;45.460;9.240;2022-09-17T17:14:45;23.10;66.40
22852;DHT22;11592;45.460;9.240;2022-09-17T17:17:16;23.10;66.30
22852;DHT22;11592;45.460;9.240;2022-09-17T17:19:43;22.90;68.10
22852;DHT22;11592;45.460;9.240;2022-09-17T17:22:12;22.90;68.10
22852;DHT22;11592;45.460;9.240;2022-09-17T17:24:39;22.70;68.20
22852;DHT22;11592;45.460;9.240;2022-09-17T17:27:06;22.60;67.80
22852;DHT22;11592;45.460;9.240;2022-09-17T17:29:36;22.60;68.00
22852;DHT22;11592;45.460;9.240;2022-09-17T17:32:03;22.60;68.80
22852;DHT22;11592;45.460;9.240;2022-09-17T17:34:30;22.50;69.20
22852;DHT22;11592;45.460;9.240;2022-09-17T17:36:57;22.40;69.00
22852;DHT22;11592;45.460;9.240;2022-09-17T17:39:24;22.40;70.80
22852;DHT22;11592;45.460;9.240;2022-09-17T17:41:51;22.30;72.50
22852;DHT22;11592;45.460;9.240;2022-09-17T17:44:20;22.20;72.10
22852;DHT22;11592;45.460;9.240;2022-09-17T17:46:47;22.20;72.70
22852;DHT22;11592;45.460;9.240;2022-09-17T17:49:13;22.00;73.70
22852;DHT22;11592;45.460;9.240;2022-09-17T17:51:40;21.90;74.00
22852;DHT22;11592;45.460;9.240;2022-09-17T17:54:07;21.90;72.90
22852;DHT22;11592;45.460;9.240;2022-09-17T17:56:34;21.90;73.10
22852;DHT22;11592;45.460;9.240;2022-09-17T17:59:01;21.90;73.50
22852;DHT22;11592;45.460;9.240;2022-09-17T18:01:29;21.90;73.10
22852;DHT22;11592;45.460;9.240;2022-09-17T18:04:01;22.00;68.10
22852;DHT22;11592;45.460;9.240;2022-09-17T18:06:28;22.00;67.40
22852;DHT22;11592;45.460;9.240;2022-09-17T18:08:56;22.00;68.30
22852;DHT22;11592;45.460;9.240;2022-09-17T18:11:23;22.00;67.00
22852;DHT22;11592;45.460;9.240;2022-09-17T18:13:53;21.90;67.30
22852;DHT22;11592;45.460;9.240;2022-09-17T18:16:21;21.80;69.10
22852;DHT22;11592;45.460;9.240;2022-09-17T18:18:49;21.70;70.10
22852;DHT22;11592;45.460;9.240;2022-09-17T18:21:18;21.70;70.60
22852;DHT22;11592;45.460;9.240;2022-09-17T18:23:46;21.60;71.40
22852;DHT22;11592;45.460;9.240;2022-09-17T18:26:24;21.70;71.10
22852;DHT22;11592;45.460;9.240;2022-09-17T18:28:52;21.70;67.00
22852;DHT22;11592;45.460;9.240;2022-09-17T18:31:24;21.70;63.20
22852;DHT22;11592;45.460;9.240;2022-09-17T18:34:02;21.60;60.20
22852;DHT22;11592;45.460;9.240;2022-09-17T18:36:31;21.70;59.50
22852;DHT22;11592;45.460;9.240;2022-09-17T18:39:00;21.70;58.90
22852;DHT22;11592;45.460;9.240;2022-09-17T18:41:47;21.60;54.90
22852;DHT22;11592;45.460;9.240;2022-09-17T18:44:14;21.60;52.50
22852;DHT22;11592;45.460;9.240;2022-09-17T18:46:41;21.60;49.40
22852;DHT22;11592;45.460;9.240;2022-09-17T18:49:08;21.60;48.30
22852;DHT22;11592;45.460;9.240;2022-09-17T18:51:36;21.70;47.90
22852;DHT22;11592;45.460;9.240;2022-09-17T18:54:03;21.70;47.70
22852;DHT22;11592;45.460;9.240;2022-09-17T18:56:30;21.70;47.90
22852;DHT22;11592;45.460;9.240;2022-09-17T18:59:01;21.70;47.20
22852;DHT22;11592;45.460;9.240;2022-09-17T19:01:33;21.70;46.60
22852;DHT22;11592;45.460;9.240;2022-09-17T19:04:00;21.70;47.10
22852;DHT22;11592;45.460;9.240;2022-09-17T19:06:27;21.70;45.70
22852;DHT22;11592;45.460;9.240;2022-09-17T19:08:59;21.60;45.90
22852;DHT22;11592;45.460;9.240;2022-09-17T19:11:26;21.60;45.00
22852;DHT22;11592;45.460;9.240;2022-09-17T19:13:52;21.60;45.10
22852;DHT22;11592;45.460;9.240;2022-09-17T19:16:19;21.60;45.60
22852;DHT22;11592;45.460;9.240;2022-09-17T19:18:46;21.60;44.80
22852;DHT22;11592;45.460;9.240;2022-09-17T19:21:17;21.60;44.50
22852;DHT22;11592;45.460;9.240;2022-09-17T19:23:48;21.60;44.60
22852;DHT22;11592;45.460;9.240;2022-09-17T19:26:17;21.60;45.50
22852;DHT22;11592;45.460;9.240;2022-09-17T19:28:44;21.50;44.30